Terminal Aerodrome Forecast
Issued by NWS

Home | Current Version | Previous Version | Text Only | Print | Product List | Glossary On
Versions: 1 2 3 4 5 6 7 8 9 10 11 12 13 14 15 16 17 18 19 20 21 22 23 24 25 26 27 28 29 30 31
000
FTUS41 KBUF 230800 AAA
TAFJHW
TAF AMD
KJHW 230855Z 2309/2406 30012G20KT 5SM -DZ BR OVC005
     FM231200 32014G21KT P6SM OVC007
     FM231500 31018KT P6SM BKN012
     FM231700 30018KT P6SM BKN025
     FM231800 30018KT P6SM SCT025
     FM240000 31012KT P6SM SKC
     FM240500 32008KT P6SM SKC
      AMD LTD TO CLD VIS AND WIND=

USA.gov is the U.S. government's official web portal to all federal, state and local government web resources and services.